createdAt,value
2018-08-17T00:01:50.743Z,24.82
2018-08-17T00:04:19.274Z,24.80
2018-08-17T00:06:47.134Z,24.77
2018-08-17T00:09:14.741Z,24.77
2018-08-17T00:11:42.825Z,24.75
2018-08-17T00:14:10.450Z,24.70
2018-08-17T00:16:38.821Z,24.72
2018-08-17T00:19:06.835Z,24.71
2018-08-17T00:21:34.453Z,24.70
2018-08-17T00:24:02.396Z,24.68
2018-08-17T00:26:30.049Z,24.68
2018-08-17T00:28:58.061Z,24.67
2018-08-17T00:31:26.034Z,24.66
2018-08-17T00:33:54.389Z,24.66
2018-08-17T00:36:22.024Z,24.65
2018-08-17T00:38:50.078Z,24.64
2018-08-17T00:41:18.109Z,24.64
2018-08-17T00:43:46.171Z,24.63
2018-08-17T00:46:14.056Z,24.62
2018-08-17T00:48:41.722Z,24.63
2018-08-17T00:51:09.914Z,24.61
2018-08-17T00:53:38.877Z,24.61
2018-08-17T00:56:06.640Z,24.60
2018-08-17T00:58:34.653Z,24.59
2018-08-17T01:01:02.274Z,24.56
2018-08-17T01:03:30.313Z,24.56
2018-08-17T01:05:58.229Z,24.54
2018-08-17T01:08:26.287Z,24.52
2018-08-17T01:10:54.338Z,24.51
2018-08-17T01:13:22.355Z,24.48
2018-08-17T01:15:49.986Z,24.47
2018-08-17T01:18:17.654Z,24.46
2018-08-17T01:20:45.611Z,24.45
2018-08-17T01:23:13.257Z,24.43
2018-08-17T01:25:41.132Z,24.43
2018-08-17T01:28:09.805Z,24.41
2018-08-17T01:30:37.478Z,24.41
2018-08-17T01:33:05.306Z,24.38
2018-08-17T01:35:32.992Z,24.36
2018-08-17T01:38:01.409Z,24.33
2018-08-17T01:40:29.086Z,24.32
2018-08-17T01:42:56.667Z,24.30
2018-08-17T01:45:24.543Z,24.29
2018-08-17T01:47:52.768Z,24.29
2018-08-17T01:50:20.414Z,24.29
2018-08-17T01:52:48.022Z,24.28
2018-08-17T01:55:15.959Z,24.26
2018-08-17T01:57:43.566Z,24.24
2018-08-17T02:00:11.744Z,24.22
2018-08-17T02:02:41.179Z,24.22
2018-08-17T02:05:09.544Z,24.21
2018-08-17T02:07:37.203Z,24.20
2018-08-17T02:10:07.625Z,24.20
2018-08-17T02:12:35.394Z,24.18
2018-08-17T02:15:03.432Z,24.18
2018-08-17T02:17:31.139Z,24.15
2018-08-17T02:19:58.754Z,24.14
2018-08-17T02:22:26.401Z,24.12
2018-08-17T02:24:54.113Z,24.10
2018-08-17T02:27:22.406Z,24.10
2018-08-17T02:29:50.556Z,24.08
2018-08-17T02:32:18.159Z,24.06
2018-08-17T02:34:46.139Z,24.04
2018-08-17T02:37:14.316Z,24.04
2018-08-17T02:39:42.498Z,24.04
2018-08-17T02:42:10.117Z,24.01
2018-08-17T02:44:38.092Z,23.99
2018-08-17T02:47:05.754Z,23.99
2018-08-17T02:49:33.393Z,23.97
2018-08-17T02:52:01.624Z,23.96
2018-08-17T02:54:29.325Z,23.95
2018-08-17T02:56:57.309Z,23.95
2018-08-17T02:59:24.953Z,23.93
2018-08-17T03:01:52.637Z,23.93
2018-08-17T03:04:20.338Z,23.91
2018-08-17T03:06:47.968Z,23.90
2018-08-17T03:09:15.700Z,23.89
2018-08-17T03:11:43.334Z,23.89
2018-08-17T03:14:10.963Z,23.90
2018-08-17T03:16:38.579Z,23.89
2018-08-17T03:19:06.274Z,23.87
2018-08-17T03:21:34.177Z,23.86
2018-08-17T03:24:02.112Z,23.85
2018-08-17T03:26:29.815Z,23.82
2018-08-17T03:28:57.736Z,23.82
2018-08-17T03:31:25.353Z,23.80
2018-08-17T03:33:53.165Z,23.78
2018-08-17T03:36:20.793Z,23.78
2018-08-17T03:38:48.688Z,23.78
2018-08-17T03:41:16.474Z,23.77
2018-08-17T03:43:44.175Z,23.77
2018-08-17T03:46:11.851Z,23.78
2018-08-17T03:48:39.509Z,23.77
2018-08-17T03:51:07.435Z,23.75
2018-08-17T03:53:35.105Z,23.74
2018-08-17T03:56:02.986Z,23.74
2018-08-17T03:58:30.929Z,23.74
2018-08-17T04:00:59.184Z,23.72
2018-08-17T04:03:26.853Z,23.71
2018-08-17T04:05:54.775Z,23.71
2018-08-17T04:08:22.686Z,23.69
2018-08-17T04:10:50.623Z,23.69
2018-08-17T04:13:18.540Z,23.68
2018-08-17T04:15:46.183Z,23.68
2018-08-17T04:18:13.941Z,23.67
2018-08-17T04:20:41.870Z,23.65
2018-08-17T04:23:09.804Z,23.64
2018-08-17T04:25:37.681Z,23.65
2018-08-17T04:28:05.717Z,23.65
2018-08-17T04:30:33.372Z,23.65
2018-08-17T04:33:01.606Z,23.66
2018-08-17T04:35:29.989Z,23.65
2018-08-17T04:37:57.938Z,23.64
2018-08-17T04:40:25.592Z,23.64
2018-08-17T04:42:54.208Z,23.65
2018-08-17T04:45:22.519Z,23.64
2018-08-17T04:47:50.727Z,23.64
2018-08-17T04:50:18.999Z,23.64
2018-08-17T04:52:46.929Z,23.65
2018-08-17T04:55:14.579Z,23.62
2018-08-17T04:57:42.197Z,23.64
2018-08-17T05:00:10.440Z,23.62
2018-08-17T05:02:38.999Z,23.62
2018-08-17T05:05:07.573Z,23.63
2018-08-17T05:07:35.611Z,23.65
2018-08-17T05:10:03.444Z,23.67
2018-08-17T05:12:31.382Z,23.69
2018-08-17T05:14:58.999Z,23.70
2018-08-17T05:17:26.679Z,23.70
2018-08-17T05:19:54.337Z,23.69
2018-08-17T05:22:21.945Z,23.70
2018-08-17T05:24:49.926Z,23.70
2018-08-17T05:27:18.105Z,23.74
2018-08-17T05:29:45.733Z,23.74
2018-08-17T05:32:13.414Z,23.75
2018-08-17T05:34:41.065Z,23.78
2018-08-17T05:37:08.847Z,23.80
2018-08-17T05:39:36.469Z,23.81
2018-08-17T05:42:04.168Z,23.80
2018-08-17T05:44:32.626Z,23.80
2018-08-17T05:47:00.600Z,23.81
2018-08-17T05:49:28.252Z,23.84
2018-08-17T05:51:55.964Z,23.86
2018-08-17T05:54:24.045Z,23.91
2018-08-17T05:56:51.930Z,23.94
2018-08-17T05:59:19.808Z,23.96
2018-08-17T06:01:47.491Z,23.98
2018-08-17T06:04:15.509Z,23.99
2018-08-17T06:06:43.476Z,23.99
2018-08-17T06:09:11.156Z,23.99
2018-08-17T06:11:38.923Z,24.01
2018-08-17T06:14:07.066Z,24.01
2018-08-17T06:16:34.736Z,23.99
2018-08-17T06:19:02.666Z,23.98
2018-08-17T06:21:30.285Z,23.98
2018-08-17T06:23:57.946Z,23.96
2018-08-17T06:26:26.399Z,23.96
2018-08-17T06:28:54.383Z,23.97
2018-08-17T06:31:22.065Z,23.96
2018-08-17T06:33:49.740Z,23.99
2018-08-17T06:36:17.408Z,23.99
2018-08-17T06:38:45.072Z,24.02
2018-08-17T06:41:12.804Z,24.03
2018-08-17T06:43:40.732Z,24.06
2018-08-17T06:46:08.380Z,24.06
2018-08-17T06:48:36.022Z,24.09
2018-08-17T06:51:04.061Z,24.08
2018-08-17T06:53:32.325Z,24.08
2018-08-17T06:56:00.008Z,24.09
2018-08-17T06:58:28.500Z,24.10
2018-08-17T07:00:56.340Z,24.13
2018-08-17T07:03:24.021Z,24.13
2018-08-17T07:05:51.699Z,24.11
2018-08-17T07:08:19.452Z,24.07
2018-08-17T07:10:47.433Z,24.03
2018-08-17T07:13:15.449Z,24.02
2018-08-17T07:15:44.028Z,24.00
2018-08-17T07:18:11.738Z,23.98
2018-08-17T07:20:39.372Z,24.00
2018-08-17T07:23:07.881Z,24.03
2018-08-17T07:25:35.843Z,24.04
2018-08-17T07:28:03.496Z,24.06
2018-08-17T07:30:31.181Z,24.07
2018-08-17T07:32:59.424Z,24.07
2018-08-17T07:35:27.690Z,24.06
2018-08-17T07:37:55.444Z,24.04
2018-08-17T07:40:23.040Z,24.04
2018-08-17T07:42:51.044Z,24.04
2018-08-17T07:45:19.101Z,24.02
2018-08-17T07:47:46.845Z,24.02
2018-08-17T07:50:17.435Z,24.00
2018-08-17T07:52:46.073Z,23.98
2018-08-17T07:55:14.126Z,23.97
2018-08-17T07:57:41.786Z,23.95
2018-08-17T08:00:09.945Z,23.96
2018-08-17T08:02:37.873Z,23.97
2018-08-17T08:05:06.549Z,23.97
2018-08-17T08:07:34.220Z,23.95
2018-08-17T08:10:01.951Z,23.96
2018-08-17T08:12:29.554Z,23.96
2018-08-17T08:14:57.594Z,23.94
2018-08-17T08:17:25.300Z,23.93
2018-08-17T08:20:04.343Z,23.93
2018-08-17T08:22:32.005Z,23.91
2018-08-17T08:24:59.959Z,23.91
2018-08-17T08:27:27.835Z,23.90
2018-08-17T08:29:55.791Z,23.91
2018-08-17T08:32:23.581Z,23.91
2018-08-17T08:34:51.277Z,23.89
2018-08-17T08:37:18.951Z,23.89
2018-08-17T08:39:46.661Z,23.95
2018-08-17T08:42:14.884Z,23.97
2018-08-17T08:44:42.898Z,23.97
2018-08-17T08:47:10.906Z,23.97
2018-08-17T08:49:38.912Z,23.95
2018-08-17T08:52:06.869Z,23.97
2018-08-17T08:54:34.528Z,23.97
2018-08-17T08:57:02.526Z,23.96
2018-08-17T08:59:30.185Z,23.96
2018-08-17T09:01:57.894Z,23.96
2018-08-17T09:04:25.629Z,23.95
2018-08-17T09:06:53.305Z,23.94
2018-08-17T09:09:21.288Z,23.92
2018-08-17T09:11:49.184Z,23.93
2018-08-17T09:14:17.181Z,23.92
2018-08-17T09:16:44.818Z,23.91
2018-08-17T09:19:12.419Z,23.91
2018-08-17T09:21:40.453Z,23.90
2018-08-17T09:24:08.077Z,23.91
2018-08-17T09:26:36.340Z,23.91
2018-08-17T09:29:05.078Z,23.90
2018-08-17T09:31:33.138Z,23.90
2018-08-17T09:34:01.039Z,23.90
2018-08-17T09:36:28.694Z,23.90
2018-08-17T09:38:56.351Z,23.90
2018-08-17T09:41:24.034Z,23.92
2018-08-17T09:43:51.964Z,23.92
2018-08-17T09:46:19.711Z,23.93
2018-08-17T09:48:47.767Z,23.94
2018-08-17T09:51:15.784Z,23.94
2018-08-17T09:53:43.675Z,23.96
2018-08-17T09:56:11.317Z,23.97
2018-08-17T09:58:40.343Z,24.00
2018-08-17T10:01:13.993Z,24.02
2018-08-17T10:03:44.589Z,24.07
2018-08-17T10:06:18.072Z,24.08
2018-08-17T10:08:51.370Z,24.11
2018-08-17T10:11:19.001Z,24.12
2018-08-17T10:13:47.035Z,24.13
2018-08-17T10:16:14.681Z,24.17
2018-08-17T10:18:44.532Z,24.18
2018-08-17T10:21:14.135Z,24.16
2018-08-17T10:23:41.917Z,24.18
2018-08-17T10:26:09.929Z,24.23
2018-08-17T10:28:37.691Z,24.26
2018-08-17T10:31:05.376Z,24.27
2018-08-17T10:33:33.544Z,24.29
2018-08-17T10:36:01.780Z,24.31
2018-08-17T10:38:30.311Z,24.34
2018-08-17T10:40:57.943Z,24.35
2018-08-17T10:43:25.590Z,24.32
2018-08-17T10:45:53.340Z,24.25
2018-08-17T10:48:21.173Z,24.21
2018-08-17T10:50:53.895Z,24.17
2018-08-17T10:53:22.417Z,24.15
2018-08-17T10:55:50.102Z,23.92
2018-08-17T10:58:18.409Z,24.14
2018-08-17T11:00:46.114Z,24.18
2018-08-17T11:03:13.822Z,24.24
2018-08-17T11:05:41.953Z,24.24
2018-08-17T11:08:09.602Z,24.20
2018-08-17T11:10:37.261Z,24.17
2018-08-17T11:13:05.013Z,24.21
2018-08-17T11:15:33.094Z,24.34
2018-08-17T11:18:00.841Z,24.41
2018-08-17T11:20:28.499Z,24.46
2018-08-17T11:22:56.195Z,24.48
2018-08-17T11:25:23.863Z,24.49
2018-08-17T11:27:52.044Z,24.47
2018-08-17T11:30:19.712Z,24.48
2018-08-17T11:32:47.716Z,24.51
2018-08-17T11:35:15.382Z,24.51
2018-08-17T11:37:43.022Z,24.51
2018-08-17T11:40:11.469Z,24.51
2018-08-17T11:42:44.021Z,24.54
2018-08-17T11:45:14.121Z,24.58
2018-08-17T11:47:42.459Z,24.60
2018-08-17T11:50:12.593Z,24.61
2018-08-17T11:52:45.059Z,24.63
2018-08-17T11:55:12.681Z,24.66
2018-08-17T11:57:40.684Z,24.66
2018-08-17T12:00:08.325Z,24.68
2018-08-17T12:02:36.044Z,24.67
2018-08-17T12:05:04.308Z,24.71
2018-08-17T12:07:32.297Z,24.72
2018-08-17T12:10:04.027Z,24.74
2018-08-17T12:12:33.726Z,24.78
2018-08-17T12:15:01.929Z,24.83
2018-08-17T12:17:29.704Z,24.87
2018-08-17T12:22:46.631Z,24.92
2018-08-17T12:25:14.283Z,24.96
2018-08-17T12:27:46.719Z,24.96
2018-08-17T12:30:14.724Z,24.97
2018-08-17T12:32:42.613Z,24.95
2018-08-17T12:35:10.601Z,24.90
2018-08-17T12:37:38.532Z,24.81
2018-08-17T12:40:06.548Z,24.72
2018-08-17T12:42:36.306Z,24.65
2018-08-17T12:45:09.544Z,24.63
2018-08-17T12:47:38.560Z,24.61
2018-08-17T12:50:06.193Z,24.59
2018-08-17T12:52:34.218Z,24.58
2018-08-17T12:55:02.133Z,24.56
2018-08-17T12:57:35.328Z,24.53
2018-08-17T13:00:03.027Z,24.51
2018-08-17T13:02:30.716Z,24.49
2018-08-17T13:04:59.728Z,24.51
2018-08-17T13:07:28.185Z,24.54
2018-08-17T13:09:56.032Z,24.57
2018-08-17T13:12:24.284Z,24.57
2018-08-17T13:14:52.362Z,24.56
2018-08-17T13:17:20.259Z,24.57
2018-08-17T13:19:47.833Z,24.60
2018-08-17T13:22:15.520Z,24.59
2018-08-17T13:24:43.141Z,24.57
2018-08-17T13:27:11.416Z,24.55
2018-08-17T13:29:39.431Z,24.56
2018-08-17T13:32:07.117Z,24.57
2018-08-17T13:34:35.017Z,24.56
2018-08-17T13:37:02.946Z,24.58
2018-08-17T13:39:30.610Z,24.62
2018-08-17T13:41:58.281Z,24.65
2018-08-17T13:44:25.970Z,24.68
2018-08-17T13:46:53.641Z,24.71
2018-08-17T13:49:21.299Z,24.77
2018-08-17T13:51:49.237Z,24.83
2018-08-17T13:54:16.918Z,24.90
2018-08-17T13:56:45.203Z,24.92
2018-08-17T13:59:13.481Z,24.95
2018-08-17T14:01:41.171Z,25.02
2018-08-17T14:04:08.815Z,25.06
2018-08-17T14:06:36.544Z,25.06
2018-08-17T14:09:06.981Z,25.06
2018-08-17T14:11:34.621Z,25.07
2018-08-17T14:14:02.382Z,25.07
2018-08-17T14:16:30.045Z,25.10
2018-08-17T14:18:58.293Z,25.22
2018-08-17T14:21:26.252Z,25.39
2018-08-17T14:23:54.768Z,25.66
2018-08-17T14:26:22.777Z,26.74
2018-08-17T14:28:51.080Z,28.20
2018-08-17T14:31:18.798Z,29.14
2018-08-17T14:33:46.792Z,29.76
2018-08-17T14:36:14.685Z,30.18
2018-08-17T14:38:42.344Z,30.49
2018-08-17T14:41:09.980Z,30.72
2018-08-17T14:43:37.676Z,30.95
2018-08-17T14:46:05.472Z,31.12
2018-08-17T14:48:33.124Z,31.28
2018-08-17T14:51:00.764Z,31.44
2018-08-17T14:53:28.442Z,31.60
2018-08-17T14:55:56.132Z,31.67
2018-08-17T14:58:23.808Z,31.71
2018-08-17T15:00:51.508Z,31.10
2018-08-17T15:03:19.461Z,30.45
2018-08-17T15:05:47.123Z,30.30
2018-08-17T15:08:14.924Z,29.87
2018-08-17T15:10:42.604Z,29.71
2018-08-17T15:13:11.009Z,28.94
2018-08-17T15:15:38.676Z,28.38
2018-08-17T15:18:06.381Z,28.47
2018-08-17T15:20:34.073Z,27.75
2018-08-17T15:23:01.751Z,27.46
2018-08-17T15:25:29.758Z,27.86
2018-08-17T15:27:58.173Z,27.86
2018-08-17T15:30:26.446Z,27.46
2018-08-17T15:32:54.463Z,27.30
2018-08-17T15:35:22.141Z,27.20
2018-08-17T15:37:50.399Z,27.25
2018-08-17T15:40:18.042Z,27.89
2018-08-17T15:42:45.985Z,28.38
2018-08-17T15:45:18.028Z,27.73
2018-08-17T15:47:45.979Z,27.17
2018-08-17T15:50:16.004Z,26.84
2018-08-17T15:52:44.271Z,26.66
2018-08-17T15:55:12.078Z,26.52
2018-08-17T15:57:39.762Z,26.44
2018-08-17T16:00:09.529Z,26.37
2018-08-17T16:02:37.465Z,26.32
2018-08-17T16:05:05.511Z,26.26
2018-08-17T16:07:33.397Z,26.24
2018-08-17T16:10:01.410Z,26.21
2018-08-17T16:12:29.275Z,26.19
2018-08-17T16:14:57.160Z,26.16
2018-08-17T16:17:24.873Z,26.16
2018-08-17T16:19:52.839Z,26.15
2018-08-17T16:22:20.737Z,26.15
2018-08-17T16:24:48.400Z,26.14
2018-08-17T16:27:16.025Z,26.12
2018-08-17T16:29:43.711Z,26.09
2018-08-17T16:32:11.526Z,26.08
2018-08-17T16:34:39.178Z,26.06
2018-08-17T16:37:06.840Z,26.04
2018-08-17T16:39:39.679Z,26.02
2018-08-17T16:42:07.914Z,26.02
2018-08-17T16:44:36.056Z,26.00
2018-08-17T16:47:03.814Z,25.74
2018-08-17T16:49:31.546Z,25.96
2018-08-17T16:51:59.501Z,25.95
2018-08-17T16:54:27.174Z,25.93
2018-08-17T16:56:55.729Z,25.93
2018-08-17T16:59:24.066Z,25.92
2018-08-17T17:01:51.770Z,25.20
2018-08-17T17:04:20.005Z,25.94
2018-08-17T17:06:47.669Z,25.95
2018-08-17T17:09:15.365Z,25.92
2018-08-17T17:11:43.478Z,25.91
2018-08-17T17:14:11.408Z,25.93
2018-08-17T17:16:44.623Z,26.00
2018-08-17T17:19:16.343Z,26.14
2018-08-17T17:21:46.044Z,26.32
2018-08-17T17:24:13.851Z,26.49
2018-08-17T17:26:41.777Z,26.56
2018-08-17T17:29:09.732Z,26.68
2018-08-17T17:31:37.684Z,26.75
2018-08-17T17:34:06.265Z,26.85
2018-08-17T17:36:34.003Z,26.89
2018-08-17T17:39:01.685Z,26.83
2018-08-17T17:41:30.829Z,26.72
2018-08-17T17:43:58.492Z,26.71
2018-08-17T17:46:26.253Z,26.70
2018-08-17T17:48:53.919Z,26.63
2018-08-17T17:51:22.113Z,26.49
2018-08-17T17:53:50.443Z,26.37
2018-08-17T17:56:18.093Z,26.26
2018-08-17T17:58:45.746Z,26.19
2018-08-17T18:01:14.061Z,26.15
2018-08-17T18:03:46.048Z,26.19
2018-08-17T18:06:13.725Z,26.16
2018-08-17T18:08:41.725Z,26.12
2018-08-17T18:11:09.915Z,26.06
2018-08-17T18:13:37.636Z,26.04
2018-08-17T18:16:05.840Z,25.97
2018-08-17T18:18:33.828Z,25.89
2018-08-17T18:21:01.515Z,25.82
2018-08-17T18:23:30.018Z,25.75
2018-08-17T18:25:57.670Z,25.68
2018-08-17T18:28:25.354Z,25.63
2018-08-17T18:30:53.089Z,25.58
2018-08-17T18:33:21.357Z,25.52
2018-08-17T18:35:48.980Z,25.49
2018-08-17T18:38:16.694Z,25.44
2018-08-17T18:40:44.597Z,25.38
2018-08-17T18:43:12.268Z,25.35
2018-08-17T18:45:40.252Z,25.31
2018-08-17T18:48:07.934Z,25.27
2018-08-17T18:50:35.979Z,25.23
2018-08-17T18:53:03.637Z,25.21
2018-08-17T18:55:31.281Z,25.17
2018-08-17T18:57:59.184Z,25.13
2018-08-17T19:00:26.848Z,25.09
2018-08-17T19:02:54.808Z,25.06
2018-08-17T19:05:22.429Z,25.02
2018-08-17T19:07:50.067Z,24.98
2018-08-17T19:10:18.499Z,24.95
2018-08-17T19:12:46.369Z,24.92
2018-08-17T19:15:14.030Z,24.89
2018-08-17T19:17:42.321Z,24.86
2018-08-17T19:20:11.270Z,24.82
2018-08-17T19:22:41.160Z,24.80
2018-08-17T19:25:11.278Z,24.76
2018-08-17T19:27:40.225Z,24.74
2018-08-17T19:30:23.669Z,24.71
2018-08-17T19:32:54.043Z,24.67
2018-08-17T19:35:21.733Z,24.65
2018-08-17T19:37:50.472Z,24.63
2018-08-17T19:40:18.238Z,24.61
2018-08-17T19:42:46.577Z,24.60
2018-08-17T19:45:14.258Z,24.58
2018-08-17T19:47:41.981Z,24.55
2018-08-17T19:50:09.960Z,24.53
2018-08-17T19:52:37.613Z,24.50
2018-08-17T19:55:05.750Z,24.49
2018-08-17T19:57:33.419Z,24.48
2018-08-17T20:00:01.598Z,24.46
2018-08-17T20:02:29.593Z,24.43
2018-08-17T20:04:57.237Z,24.42
2018-08-17T20:07:24.944Z,24.41
2018-08-17T20:09:52.616Z,24.39
2018-08-17T20:12:20.511Z,24.38
2018-08-17T20:14:48.168Z,24.37
2018-08-17T20:17:15.819Z,24.34
2018-08-17T20:19:49.579Z,24.33
2018-08-17T20:22:20.720Z,24.29
2018-08-17T20:24:48.455Z,24.29
2018-08-17T20:27:17.793Z,24.28
2018-08-17T20:29:45.481Z,24.27
2018-08-17T20:32:13.193Z,24.26
2018-08-17T20:34:44.494Z,24.25
2018-08-17T20:37:13.648Z,24.24
2018-08-17T20:39:43.242Z,24.23
2018-08-17T20:42:11.274Z,24.23
2018-08-17T20:44:39.383Z,24.22
2018-08-17T20:47:07.752Z,24.20
2018-08-17T20:49:35.691Z,24.19
2018-08-17T20:52:03.720Z,24.17
2018-08-17T20:54:31.834Z,24.18
2018-08-17T20:57:00.387Z,24.16
2018-08-17T20:59:28.277Z,24.16
2018-08-17T21:01:56.407Z,24.14
2018-08-17T21:04:24.061Z,24.14
2018-08-17T21:06:52.325Z,24.12
2018-08-17T21:09:20.398Z,24.11
2018-08-17T21:11:48.050Z,24.11
2018-08-17T21:14:15.760Z,24.09
2018-08-17T21:16:43.401Z,24.07
2018-08-17T21:19:11.414Z,24.08
2018-08-17T21:21:39.370Z,24.07
2018-08-17T21:24:06.953Z,24.06
2018-08-17T21:26:34.645Z,24.04
2018-08-17T21:29:03.254Z,24.04
2018-08-17T21:31:31.438Z,24.04
2018-08-17T21:33:59.087Z,24.02
2018-08-17T21:36:26.773Z,24.02
2018-08-17T21:39:12.009Z,24.01
2018-08-17T21:41:41.842Z,24.00
2018-08-17T21:44:11.865Z,23.98
2018-08-17T21:46:42.543Z,23.97
2018-08-17T21:49:10.427Z,23.96
2018-08-17T21:51:38.397Z,23.94
2018-08-17T21:54:06.495Z,23.94
2018-08-17T21:56:34.152Z,23.92
2018-08-17T21:59:01.800Z,23.92
2018-08-17T22:01:29.479Z,23.89
2018-08-17T22:03:57.441Z,23.88
2018-08-17T22:06:25.116Z,23.87
2018-08-17T22:08:53.676Z,23.86
2018-08-17T22:11:36.481Z,23.85
2018-08-17T22:14:05.099Z,23.84
2018-08-17T22:16:33.063Z,23.84
2018-08-17T22:19:00.799Z,23.82
2018-08-17T22:21:29.177Z,23.82
2018-08-17T22:23:56.930Z,23.79
2018-08-17T22:26:24.901Z,23.79
2018-08-17T22:28:52.746Z,23.77
2018-08-17T22:31:32.177Z,23.78
2018-08-17T22:33:59.851Z,23.78
2018-08-17T22:36:28.716Z,23.75
2018-08-17T22:38:56.336Z,23.75
2018-08-17T22:41:23.957Z,23.75
2018-08-17T22:43:52.239Z,23.74
2018-08-17T22:46:19.869Z,23.71
2018-08-17T22:48:47.549Z,23.71
2018-08-17T22:51:15.175Z,23.69
2018-08-17T22:53:43.241Z,23.68
2018-08-17T22:56:11.135Z,23.68
2018-08-17T22:58:44.425Z,23.68
2018-08-17T23:01:12.075Z,23.67
2018-08-17T23:03:44.465Z,23.66
2018-08-17T23:06:12.485Z,23.64
2018-08-17T23:08:40.714Z,23.63
2018-08-17T23:11:18.701Z,23.63
2018-08-17T23:13:46.336Z,23.62
2018-08-17T23:16:14.039Z,23.60
2018-08-17T23:18:41.676Z,23.61
2018-08-17T23:21:09.729Z,23.60
2018-08-17T23:23:37.443Z,23.58
2018-08-17T23:26:05.118Z,23.58
2018-08-17T23:28:33.117Z,23.58
2018-08-17T23:31:00.802Z,23.58
2018-08-17T23:33:28.962Z,23.59
2018-08-17T23:35:56.584Z,23.59
2018-08-17T23:38:24.278Z,23.59
2018-08-17T23:40:52.283Z,23.57
2018-08-17T23:43:19.957Z,23.57
2018-08-17T23:45:47.980Z,23.55
2018-08-17T23:48:15.698Z,23.55
2018-08-17T23:50:43.714Z,23.54
2018-08-17T23:53:11.407Z,23.53
2018-08-17T23:55:39.325Z,23.52
2018-08-17T23:58:06.945Z,23.52
